createdAt,value
2018-12-13T00:04:38.325Z,-0.50
2018-12-13T00:09:39.505Z,-0.70
2018-12-13T00:14:40.669Z,-0.80
2018-12-13T00:19:42.065Z,-1.00
2018-12-13T00:24:43.286Z,-1.20
2018-12-13T00:29:44.454Z,-1.50
2018-12-13T00:34:45.636Z,-1.60
2018-12-13T00:39:46.828Z,-1.60
2018-12-13T00:44:48.028Z,-1.60
2018-12-13T00:49:49.382Z,-1.60
2018-12-13T00:54:50.557Z,-1.60
2018-12-13T00:59:51.746Z,-1.40
2018-12-13T01:04:52.948Z,-1.40
2018-12-13T01:09:54.151Z,-1.30
2018-12-13T01:14:55.318Z,-1.00
2018-12-13T01:19:56.501Z,-0.90
2018-12-13T01:24:57.687Z,-0.70
2018-12-13T01:29:58.866Z,-0.50
2018-12-13T01:35:00.057Z,-0.40
2018-12-13T01:40:01.224Z,-0.30
2018-12-13T01:45:02.628Z,-0.20
2018-12-13T01:50:04.525Z,-0.10
2018-12-13T01:55:05.711Z,0.00
2018-12-13T02:00:06.998Z,0.00
2018-12-13T02:10:09.814Z,0.10
2018-12-13T02:15:11.101Z,0.20
2018-12-13T02:20:12.383Z,0.20
2018-12-13T02:25:13.574Z,0.20
2018-12-13T02:30:17.147Z,0.20
2018-12-13T02:35:18.419Z,0.20
2018-12-13T02:40:19.589Z,0.30
2018-12-13T02:45:20.767Z,0.40
2018-12-13T02:50:21.958Z,0.40
2018-12-13T02:55:23.143Z,0.40
2018-12-13T03:00:24.457Z,0.30
2018-12-13T03:05:25.618Z,0.10
2018-12-13T03:10:26.786Z,-0.10
2018-12-13T03:20:29.469Z,-0.10
2018-12-13T03:25:30.644Z,-0.10
2018-12-13T03:30:31.934Z,0.00
2018-12-13T03:35:33.196Z,0.10
2018-12-13T03:40:34.375Z,0.10
2018-12-13T03:45:35.559Z,0.10
2018-12-13T03:50:36.772Z,0.00
2018-12-13T03:55:37.945Z,-0.10
2018-12-13T04:00:39.114Z,-0.10
2018-12-13T04:05:40.289Z,-0.10
2018-12-13T04:10:41.446Z,-0.10
2018-12-13T04:15:42.619Z,0.00
2018-12-13T04:26:18.507Z,0.20
2018-12-13T04:31:19.783Z,0.30
2018-12-13T04:36:20.954Z,0.30
2018-12-13T04:41:22.131Z,0.30
2018-12-13T04:46:23.317Z,0.30
2018-12-13T04:51:24.488Z,0.40
2018-12-13T04:56:25.663Z,0.40
2018-12-13T05:01:26.827Z,0.40
2018-12-13T05:06:28.005Z,0.40
2018-12-13T05:11:29.178Z,0.50
2018-12-13T05:16:30.358Z,0.40
2018-12-13T05:21:31.522Z,0.50
2018-12-13T05:26:32.687Z,0.50
2018-12-13T05:31:33.850Z,0.50
2018-12-13T05:36:35.014Z,0.60
2018-12-13T05:41:36.182Z,0.70
2018-12-13T05:46:37.353Z,0.70
2018-12-13T05:51:38.511Z,0.70
2018-12-13T05:56:39.785Z,0.80
2018-12-13T06:01:40.980Z,0.70
2018-12-13T06:06:42.282Z,0.70
2018-12-13T06:11:43.447Z,0.70
2018-12-13T06:16:44.650Z,0.70
2018-12-13T06:21:45.806Z,0.80
2018-12-13T06:26:47.014Z,0.80
2018-12-13T06:31:48.198Z,0.80
2018-12-13T06:36:49.382Z,0.80
2018-12-13T06:41:50.559Z,0.80
2018-12-13T06:46:52.062Z,0.80
2018-12-13T06:51:53.289Z,0.80
2018-12-13T06:56:54.466Z,0.80
2018-12-13T07:01:55.647Z,0.90
2018-12-13T07:06:56.814Z,0.80
2018-12-13T07:11:57.979Z,0.80
2018-12-13T07:16:59.165Z,0.80
2018-12-13T07:22:00.347Z,0.70
2018-12-13T07:27:01.690Z,0.80
2018-12-13T07:32:03.121Z,0.80
2018-12-13T07:37:04.427Z,0.70
2018-12-13T07:42:05.613Z,0.80
2018-12-13T07:47:06.939Z,0.90
2018-12-13T07:52:08.132Z,1.10
2018-12-13T07:57:09.309Z,1.30
2018-12-13T08:02:10.507Z,1.50
2018-12-13T08:07:11.888Z,1.80
2018-12-13T08:12:13.079Z,1.90
2018-12-13T08:17:14.305Z,2.00
2018-12-13T08:22:15.476Z,2.30
2018-12-13T08:27:16.667Z,2.40
2018-12-13T08:32:17.863Z,2.40
2018-12-13T08:37:19.059Z,5.70
2018-12-13T08:42:20.254Z,2.70
2018-12-13T08:47:21.425Z,2.80
2018-12-13T08:52:22.667Z,2.90
2018-12-13T08:57:23.891Z,2.60
2018-12-13T09:02:25.099Z,2.40
2018-12-13T09:07:26.274Z,2.50
2018-12-13T09:12:27.602Z,2.40
2018-12-13T09:17:28.810Z,2.30
2018-12-13T09:22:30.006Z,2.10
2018-12-13T09:27:31.197Z,2.00
2018-12-13T09:32:32.551Z,1.80
2018-12-13T09:37:33.758Z,1.70
2018-12-13T09:42:34.927Z,1.90
2018-12-13T09:47:36.094Z,1.90
2018-12-13T09:52:37.266Z,1.90
2018-12-13T10:03:07.181Z,2.00
2018-12-13T10:08:08.352Z,1.90
2018-12-13T10:13:10.746Z,1.80
2018-12-13T10:18:12.262Z,1.70
2018-12-13T10:23:13.511Z,1.60
2018-12-13T10:28:14.753Z,1.40
2018-12-13T10:33:15.964Z,1.30
2018-12-13T10:38:17.234Z,1.40
2018-12-13T10:43:18.438Z,1.30
2018-12-13T10:48:19.636Z,1.70
2018-12-13T10:53:20.827Z,1.30
2018-12-13T10:58:22.075Z,1.30
2018-12-13T11:03:29.497Z,1.20
2018-12-13T11:08:30.805Z,1.10
2018-12-13T11:13:31.975Z,1.00
2018-12-13T11:18:34.798Z,0.90
2018-12-13T11:23:36.062Z,0.90
2018-12-13T11:28:49.699Z,0.90
2018-12-13T11:33:50.909Z,0.90
2018-12-13T11:38:52.274Z,0.90
2018-12-13T11:43:53.532Z,0.90
2018-12-13T11:48:54.716Z,0.90
2018-12-13T11:53:56.046Z,0.90
2018-12-13T11:58:57.283Z,0.90
2018-12-13T12:03:58.458Z,0.80
2018-12-13T12:08:59.628Z,0.70
2018-12-13T12:14:00.840Z,0.70
2018-12-13T12:19:02.233Z,0.60
2018-12-13T12:24:03.423Z,0.70
2018-12-13T12:29:04.748Z,0.80
2018-12-13T12:34:05.955Z,0.90
2018-12-13T12:39:07.136Z,0.90
2018-12-13T12:44:08.349Z,1.00
2018-12-13T12:49:09.530Z,0.90
2018-12-13T12:54:10.801Z,0.80
2018-12-13T12:59:12.031Z,0.80
2018-12-13T13:04:13.202Z,0.80
2018-12-13T13:09:14.362Z,0.80
2018-12-13T13:14:15.546Z,0.80
2018-12-13T13:19:16.782Z,0.80
2018-12-13T13:24:17.966Z,0.70
2018-12-13T13:29:19.161Z,0.60
2018-12-13T13:34:20.348Z,0.70
2018-12-13T13:39:21.527Z,0.60
2018-12-13T13:44:26.114Z,0.60
2018-12-13T13:49:27.302Z,0.60
2018-12-13T13:54:28.519Z,0.70
2018-12-13T13:59:29.702Z,0.70
2018-12-13T14:04:30.885Z,0.80
2018-12-13T14:09:37.785Z,0.80
2018-12-13T14:20:04.763Z,0.70
2018-12-13T14:25:06.116Z,0.80
2018-12-13T14:30:07.537Z,0.90
2018-12-13T14:35:08.741Z,0.90
2018-12-13T14:40:09.978Z,0.90
2018-12-13T14:45:11.310Z,0.90
2018-12-13T14:50:12.515Z,0.90
2018-12-13T14:55:13.708Z,0.90
2018-12-13T15:00:15.470Z,0.80
2018-12-13T15:05:16.706Z,0.70
2018-12-13T15:10:17.917Z,0.70
2018-12-13T15:15:19.143Z,0.70
2018-12-13T15:20:20.352Z,0.70
2018-12-13T15:25:21.539Z,0.70
2018-12-13T15:30:22.730Z,0.70
2018-12-13T15:35:23.915Z,0.60
2018-12-13T15:40:25.124Z,0.60
2018-12-13T15:45:26.734Z,0.60
2018-12-13T15:50:27.925Z,0.60
2018-12-13T15:55:29.136Z,0.60
2018-12-13T16:00:30.338Z,0.60
2018-12-13T16:05:31.550Z,0.60
2018-12-13T16:10:32.751Z,0.70
2018-12-13T16:15:33.950Z,0.60
2018-12-13T16:20:35.151Z,0.70
2018-12-13T16:25:36.442Z,0.70
2018-12-13T16:30:37.651Z,0.70
2018-12-13T16:35:38.840Z,0.60
2018-12-13T16:40:40.082Z,0.70
2018-12-13T16:45:41.289Z,0.70
2018-12-13T16:50:42.497Z,0.70
2018-12-13T16:55:44.432Z,0.60
2018-12-13T17:00:45.655Z,0.60
2018-12-13T17:05:46.913Z,0.70
2018-12-13T17:10:48.133Z,0.70
2018-12-13T17:15:49.583Z,0.70
2018-12-13T17:20:50.816Z,0.70
2018-12-13T17:25:52.022Z,0.60
2018-12-13T17:30:53.241Z,0.70
2018-12-13T17:35:54.511Z,0.70
2018-12-13T17:40:55.731Z,0.60
2018-12-13T17:45:56.984Z,0.70
2018-12-13T17:50:58.192Z,0.70
2018-12-13T17:55:59.389Z,0.70
2018-12-13T18:01:00.610Z,0.70
2018-12-13T18:06:01.813Z,0.70
2018-12-13T18:11:03.135Z,0.70
2018-12-13T18:16:04.349Z,0.70
2018-12-13T18:21:05.557Z,0.80
2018-12-13T18:26:06.852Z,0.80
2018-12-13T18:31:08.139Z,0.80
2018-12-13T18:36:09.322Z,0.80
2018-12-13T18:41:10.529Z,0.80
2018-12-13T18:46:11.752Z,0.80
2018-12-13T18:51:12.997Z,0.80
2018-12-13T18:56:14.227Z,0.90
2018-12-13T19:01:15.477Z,0.90
2018-12-13T19:06:16.725Z,1.00
2018-12-13T19:11:18.058Z,0.90
2018-12-13T19:16:19.285Z,0.90
2018-12-13T19:21:20.538Z,0.90
2018-12-13T19:26:21.754Z,0.80
2018-12-13T19:31:23.901Z,0.80
2018-12-13T19:36:25.099Z,0.80
2018-12-13T19:41:26.312Z,0.90
2018-12-13T19:46:27.576Z,0.90
2018-12-13T19:51:28.799Z,0.90
2018-12-13T19:56:30.014Z,1.00
2018-12-13T20:01:31.308Z,0.90
2018-12-13T20:06:32.541Z,0.90
2018-12-13T20:11:33.758Z,1.00
2018-12-13T20:16:34.971Z,1.00
2018-12-13T20:21:36.295Z,0.90
2018-12-13T20:26:37.530Z,0.90
2018-12-13T20:31:38.749Z,0.90
2018-12-13T20:36:39.969Z,0.90
2018-12-13T20:41:41.337Z,0.90
2018-12-13T20:46:42.585Z,0.90
2018-12-13T20:51:43.792Z,1.00
2018-12-13T20:56:45.108Z,0.90
2018-12-13T21:01:46.344Z,0.90
2018-12-13T21:06:49.601Z,0.90
2018-12-13T21:11:51.106Z,0.90
2018-12-13T21:16:52.405Z,0.90
2018-12-13T21:21:53.733Z,0.90
2018-12-13T21:26:54.937Z,0.80
2018-12-13T21:31:56.146Z,0.90
2018-12-13T21:36:57.351Z,0.90
2018-12-13T21:41:58.534Z,0.90
2018-12-13T21:46:59.756Z,0.90
2018-12-13T21:52:00.974Z,0.90
2018-12-13T21:57:02.281Z,0.80
2018-12-13T22:02:03.730Z,0.90
2018-12-13T22:07:05.064Z,0.90
2018-12-13T22:12:06.346Z,1.00
2018-12-13T22:17:07.627Z,0.90
2018-12-13T22:22:08.823Z,0.90
2018-12-13T22:27:10.005Z,0.90
2018-12-13T22:32:11.290Z,0.80
2018-12-13T22:37:12.820Z,0.70
2018-12-13T22:42:14.006Z,0.70
2018-12-13T22:47:15.174Z,0.70
2018-12-13T22:52:16.371Z,0.60
2018-12-13T22:57:17.542Z,0.60
2018-12-13T23:02:18.751Z,0.60
2018-12-13T23:07:19.976Z,0.50
2018-12-13T23:12:21.159Z,0.60
2018-12-13T23:17:22.679Z,0.50
2018-12-13T23:22:23.945Z,0.50
2018-12-13T23:27:25.132Z,0.50
2018-12-13T23:32:26.330Z,0.40
2018-12-13T23:37:27.505Z,0.60
2018-12-13T23:42:28.698Z,0.70
2018-12-13T23:47:29.876Z,0.60
2018-12-13T23:52:31.052Z,0.60
2018-12-13T23:57:32.247Z,0.70
